Time;durP1;ratioP1;P1;durP2;ratioP2;P2;SDS_P1;SDS_P2;PMS_P1;PMS_P2;Temp;Humidity;BMP_temperature;BMP_pressure;BME280_temperature;BME280_humidity;BME280_pressure;Samples;Min_cycle;Max_cycle;Signal;HPM_P1;HPM_P2
2022/01/16 00:01:45;;;;;;;29.48;11.05;;;2.20;70.10;;;;;;2365217;54;21023;-67
2022/01/16 00:04:12;;;;;;;28.92;9.77;;;2.20;70.10;;;;;;2345394;54;21535;-67
2022/01/16 00:06:39;;;;;;;28.20;10.45;;;2.20;70.10;;;;;;2365438;54;21773;-67
2022/01/16 00:09:06;;;;;;;32.90;10.77;;;2.10;70.10;;;;;;2365246;54;20974;-67
2022/01/16 00:11:32;;;;;;;34.63;12.93;;;2.10;70.20;;;;;;2365445;54;21008;-67
2022/01/16 00:13:58;;;;;;;39.97;14.10;;;2.10;70.20;;;;;;2354050;53;20955;-67
2022/01/16 00:16:25;;;;;;;37.53;13.45;;;2.10;70.30;;;;;;2385332;53;20927;-67
2022/01/16 00:18:52;;;;;;;27.70;11.12;;;2.10;70.40;;;;;;2350132;52;20996;-67
2022/01/16 00:21:23;;;;;;;28.80;10.27;;;2.10;70.40;;;;;;2365763;54;21305;-67
2022/01/16 00:23:50;;;;;;;22.83;9.00;;;2.10;70.20;;;;;;2365334;54;20947;-67
2022/01/16 00:26:17;;;;;;;21.67;8.95;;;2.10;70.20;;;;;;2585591;52;21405;-68
2022/01/16 00:28:43;;;;;;;22.05;8.68;;;2.10;70.20;;;;;;2307108;54;21036;-67
2022/01/16 00:31:09;;;;;;;24.40;9.00;;;2.10;70.30;;;;;;2311712;53;20926;-67
2022/01/16 00:33:39;;;;;;;27.50;9.38;;;2.10;70.20;;;;;;2363483;53;20938;-67
2022/01/16 00:36:07;;;;;;;24.37;9.82;;;2.10;70.20;;;;;;2339586;54;21056;-67
2022/01/16 00:38:34;;;;;;;21.02;8.57;;;2.10;70.30;;;;;;2345393;54;20935;-67
2022/01/16 00:41:00;;;;;;;24.95;8.73;;;2.10;70.30;;;;;;2342253;54;20938;-67
2022/01/16 00:43:27;;;;;;;25.88;9.32;;;2.10;70.30;;;;;;2423340;53;20930;-67
2022/01/16 00:45:54;;;;;;;25.12;8.32;;;2.10;70.40;;;;;;2341653;54;21027;-67
2022/01/16 00:48:20;;;;;;;21.83;8.52;;;2.10;70.40;;;;;;2329100;54;20919;-67
2022/01/16 00:50:46;;;;;;;26.37;8.30;;;2.10;70.50;;;;;;2363692;54;21667;-67
2022/01/16 00:53:12;;;;;;;27.55;9.25;;;2.10;70.50;;;;;;2427079;52;21377;-67
2022/01/16 00:55:40;;;;;;;23.70;9.95;;;2.10;70.50;;;;;;2506012;52;21581;-67
2022/01/16 00:58:07;;;;;;;26.87;10.40;;;2.10;70.50;;;;;;2342588;54;20930;-67
2022/01/16 01:00:33;;;;;;;25.88;10.93;;;2.10;70.40;;;;;;2361835;54;20933;-67
2022/01/16 01:03:00;;;;;;;21.87;8.43;;;2.10;70.30;;;;;;2369780;54;21510;-67
2022/01/16 01:05:26;;;;;;;23.92;9.10;;;2.10;70.30;;;;;;2576103;52;20941;-67
2022/01/16 01:07:53;;;;;;;26.45;10.75;;;2.10;70.40;;;;;;2342082;53;20911;-68
2022/01/16 01:10:35;;;;;;;23.23;9.60;;;2.10;70.40;;;;;;2341737;54;20927;-67
2022/01/16 01:18:06;;;;;;;21.80;7.67;;;2.10;70.30;;;;;;2341711;54;21058;-67
2022/01/16 01:20:35;;;;;;;24.25;8.93;;;2.10;70.30;;;;;;2341879;54;20925;-67
2022/01/16 01:23:02;;;;;;;24.08;9.57;;;2.10;70.50;;;;;;2342058;54;21001;-67
2022/01/16 01:25:31;;;;;;;27.00;9.60;;;2.10;70.60;;;;;;2342533;53;20919;-67
2022/01/16 01:27:58;;;;;;;25.90;9.88;;;2.10;70.70;;;;;;2343118;53;20923;-67
2022/01/16 01:30:24;;;;;;;27.13;10.00;;;2.10;70.70;;;;;;2584452;52;20951;-67
2022/01/16 01:32:54;;;;;;;27.90;10.65;;;2.10;70.60;;;;;;2347062;52;20921;-67
2022/01/16 01:35:20;;;;;;;29.17;12.48;;;2.10;70.60;;;;;;2571962;53;21841;-68
2022/01/16 01:37:47;;;;;;;35.78;12.95;;;2.10;70.50;;;;;;2359184;53;20936;-67
2022/01/16 01:40:17;;;;;;;33.15;13.05;;;2.10;70.50;;;;;;2425792;52;20975;-67
2022/01/16 01:43:01;;;;;;;35.95;13.50;;;2.10;70.30;;;;;;2365247;54;21849;-67
2022/01/16 01:51:21;;;;;;;29.20;11.23;;;2.00;70.20;;;;;;2365774;54;21474;-68
2022/01/16 01:53:47;;;;;;;26.67;10.60;;;2.00;70.30;;;;;;2365683;54;21499;-68
2022/01/16 01:56:22;;;;;;;29.87;11.02;;;2.00;70.60;;;;;;2345314;53;20936;-68
2022/01/16 01:58:51;;;;;;;34.60;12.02;;;2.00;70.70;;;;;;2365152;54;21667;-67
2022/01/16 02:01:23;;;;;;;30.73;13.57;;;2.00;70.70;;;;;;2366345;54;20980;-67
2022/01/16 02:03:49;;;;;;;30.95;12.60;;;2.00;70.50;;;;;;2552913;52;20951;-67
2022/01/16 02:06:18;;;;;;;26.85;10.88;;;2.00;70.30;;;;;;2365355;54;20971;-67
2022/01/16 02:08:46;;;;;;;26.62;10.30;;;2.00;70.40;;;;;;2347027;53;20932;-67
2022/01/16 02:11:12;;;;;;;25.17;10.30;;;2.00;70.50;;;;;;2363468;53;20939;-67
2022/01/16 02:13:49;;;;;;;25.80;10.93;;;2.00;70.70;;;;;;2365482;54;20999;-67
2022/01/16 02:33:00;;;;;;;29.98;12.32;;;2.00;70.30;;;;;;2401168;53;20923;-67
2022/01/16 02:35:26;;;;;;;;;;;2.00;70.30;;;;;;2335775;54;20914;-67
2022/01/16 02:37:53;;;;;;;26.98;10.63;;;2.00;70.00;;;;;;2370422;54;20073;-67
2022/01/16 02:40:24;;;;;;;28.10;11.32;;;2.00;70.30;;;;;;2370730;54;20934;-67
2022/01/16 02:42:52;;;;;;;27.30;11.93;;;2.00;70.40;;;;;;2623050;52;21843;-68
2022/01/16 02:45:28;;;;;;;31.10;12.07;;;2.00;70.50;;;;;;2370325;53;20954;-67
2022/01/16 02:47:57;;;;;;;25.60;11.10;;;2.00;70.70;;;;;;2371326;54;20958;-67
2022/01/16 02:50:23;;;;;;;31.37;12.20;;;2.00;70.80;;;;;;2371867;53;20933;-67
2022/01/16 02:52:50;;;;;;;28.55;12.52;;;2.00;70.80;;;;;;2370443;53;21001;-67
2022/01/16 02:55:16;;;;;;;26.92;11.85;;;2.00;70.70;;;;;;2352564;53;20933;-67
2022/01/16 02:57:43;;;;;;;26.75;10.15;;;2.00;70.50;;;;;;2367796;53;21751;-67
2022/01/16 03:00:09;;;;;;;28.05;12.05;;;2.00;71.10;;;;;;2370700;54;21453;-67
2022/01/16 03:02:36;;;;;;;27.73;11.43;;;2.00;70.30;;;;;;2370593;54;20938;-67
2022/01/16 03:05:03;;;;;;;29.73;11.70;;;2.00;70.30;;;;;;2350326;53;20949;-68
2022/01/16 03:07:29;;;;;;;24.40;11.15;;;2.00;70.30;;;;;;2367516;54;21000;-67
2022/01/16 03:12:52;;;;;;;25.77;10.55;;;1.90;70.00;;;;;;2364878;53;20969;-67
2022/01/16 03:15:19;;;;;;;23.33;9.88;;;1.90;70.10;;;;;;2357550;53;21654;-67
2022/01/16 03:21:53;;;;;;;23.48;9.18;;;1.90;70.20;;;;;;2370357;54;21330;-67
2022/01/16 03:24:32;;;;;;;16.67;6.95;;;1.90;70.20;;;;;;2371449;54;21423;-67
2022/01/16 03:27:00;;;;;;;19.50;7.95;;;1.90;69.70;;;;;;2370858;53;21058;-67
2022/01/16 03:29:27;;;;;;;19.98;9.02;;;1.80;69.60;;;;;;2357382;53;20925;-67
2022/01/16 03:31:54;;;;;;;19.85;7.78;;;1.80;69.50;;;;;;2363379;53;20925;-67
2022/01/16 03:34:20;;;;;;;22.48;8.63;;;1.80;69.50;;;;;;2369984;53;21111;-67
2022/01/16 03:36:48;;;;;;;19.17;8.25;;;1.70;69.40;;;;;;2370081;54;20974;-67
2022/01/16 03:39:26;;;;;;;23.55;9.07;;;1.70;69.40;;;;;;2372770;53;20934;-67
2022/01/16 03:41:55;;;;;;;19.00;8.77;;;1.60;69.30;;;;;;2368887;53;21514;-67
2022/01/16 03:44:21;;;;;;;20.08;8.75;;;1.60;69.30;;;;;;2372050;53;20953;-67
2022/01/16 03:46:47;;;;;;;20.48;8.68;;;1.60;69.30;;;;;;2370116;54;20978;-67
2022/01/16 03:49:17;;;;;;;18.12;7.60;;;1.60;69.30;;;;;;2363205;54;20956;-67
2022/01/16 03:51:44;;;;;;;19.95;7.87;;;1.50;69.20;;;;;;2361117;53;20985;-67
2022/01/16 03:54:13;;;;;;;22.05;8.73;;;1.50;69.30;;;;;;2367095;53;20973;-67
2022/01/16 03:56:39;;;;;;;23.52;9.85;;;1.50;69.30;;;;;;2354559;53;20950;-67
2022/01/16 03:59:05;;;;;;;19.35;8.52;;;1.50;69.20;;;;;;2370546;53;21329;-67
2022/01/16 04:01:32;;;;;;;17.98;8.02;;;1.40;69.20;;;;;;2370413;54;21573;-67
2022/01/16 04:03:58;;;;;;;21.12;8.80;;;1.50;69.30;;;;;;2623275;52;20914;-67
2022/01/16 04:06:24;;;;;;;23.38;9.95;;;1.40;69.20;;;;;;2370839;54;20953;-67
2022/01/16 04:08:53;;;;;;;21.30;10.05;;;1.40;69.30;;;;;;2368835;54;21718;-67
2022/01/16 04:11:20;;;;;;;24.95;9.75;;;1.40;69.40;;;;;;2370361;53;21946;-67
2022/01/16 04:13:52;;;;;;;26.45;11.25;;;1.40;69.50;;;;;;2622301;52;20950;-68
2022/01/16 04:16:19;;;;;;;24.75;10.63;;;1.30;69.50;;;;;;2370479;54;20942;-67
2022/01/16 04:18:50;;;;;;;24.40;10.30;;;1.30;69.50;;;;;;2370401;54;21005;-67
2022/01/16 04:21:18;;;;;;;24.20;10.32;;;1.30;69.50;;;;;;2370697;53;20938;-67
2022/01/16 04:23:44;;;;;;;21.65;9.82;;;1.30;69.50;;;;;;2369485;54;21004;-67
2022/01/16 04:26:10;;;;;;;19.77;9.07;;;1.30;69.50;;;;;;2370659;54;20946;-67
2022/01/16 04:28:37;;;;;;;19.25;8.10;;;1.30;69.60;;;;;;2370167;54;20950;-67
2022/01/16 04:31:03;;;;;;;20.35;9.05;;;1.20;69.50;;;;;;2351962;53;20968;-66
2022/01/16 04:33:29;;;;;;;18.95;8.15;;;1.20;69.50;;;;;;2384245;52;20922;-67
2022/01/16 04:35:56;;;;;;;23.33;9.65;;;1.20;69.50;;;;;;2370765;54;20938;-67
2022/01/16 04:38:27;;;;;;;23.90;10.02;;;1.20;69.50;;;;;;2370506;53;20953;-67
2022/01/16 04:43:47;;;;;;;20.73;9.15;;;1.20;69.50;;;;;;2495565;52;20982;-67
2022/01/16 04:46:33;;;;;;;21.90;9.35;;;1.20;69.60;;;;;;2457976;52;21041;-67
2022/01/16 04:48:59;;;;;;;22.13;10.23;;;1.10;69.50;;;;;;2370184;53;20940;-67
2022/01/16 04:51:26;;;;;;;24.30;9.98;;;1.10;69.50;;;;;;2370820;54;21681;-67
2022/01/16 04:53:53;;;;;;;20.50;9.45;;;1.10;69.50;;;;;;2350352;53;21040;-67
2022/01/16 04:56:19;;;;;;;24.60;10.40;;;1.00;69.40;;;;;;2371313;54;20946;-67
2022/01/16 04:58:47;;;;;;;22.37;8.95;;;1.00;69.30;;;;;;2370412;54;20929;-67
2022/01/16 05:01:13;;;;;;;21.15;8.43;;;1.00;69.20;;;;;;2370525;53;20946;-67
2022/01/16 05:03:39;;;;;;;20.77;9.60;;;1.00;69.10;;;;;;2370481;53;21918;-67
2022/01/16 05:06:05;;;;;;;23.42;9.60;;;1.00;69.00;;;;;;2362348;52;21594;-67
2022/01/16 05:08:32;;;;;;;20.88;8.90;;;0.90;68.90;;;;;;2353248;53;21680;-67
2022/01/16 05:10:58;;;;;;;20.55;8.27;;;0.90;68.90;;;;;;2599254;52;21001;-67
2022/01/16 05:17:18;;;;;;;19.42;8.57;;;0.90;68.90;;;;;;2368490;52;21750;-66
2022/01/16 05:19:44;;;;;;;18.52;8.00;;;0.80;68.70;;;;;;2359611;53;20992;-67
2022/01/16 05:22:10;;;;;;;21.45;8.88;;;0.80;68.70;;;;;;2338279;53;1938539;-67
2022/01/16 05:24:37;;;;;;;19.05;8.00;;;0.80;68.80;;;;;;2332337;54;20913;-67
2022/01/16 05:27:05;;;;;;;19.77;8.45;;;0.70;68.70;;;;;;2369461;53;21336;-67
2022/01/16 05:29:31;;;;;;;20.83;8.90;;;0.70;68.70;;;;;;2370752;52;21006;-67
2022/01/16 05:31:57;;;;;;;21.80;9.45;;;0.70;68.70;;;;;;2370527;54;20985;-67
2022/01/16 05:34:26;;;;;;;25.50;8.93;;;0.70;68.70;;;;;;2373675;53;20989;-67
2022/01/16 05:36:52;;;;;;;23.50;9.65;;;0.70;68.70;;;;;;2373654;52;20950;-67
2022/01/16 05:39:22;;;;;;;22.02;10.45;;;0.60;68.70;;;;;;2370239;54;21018;-67
2022/01/16 05:41:48;;;;;;;24.17;10.68;;;0.60;68.70;;;;;;2370413;53;21514;-67
2022/01/16 05:44:14;;;;;;;31.00;12.63;;;0.60;68.70;;;;;;2355101;53;21881;-67
2022/01/16 05:46:41;;;;;;;27.55;12.05;;;0.60;68.70;;;;;;2365042;53;20997;-67
2022/01/16 05:49:07;;;;;;;24.05;9.93;;;0.50;68.60;;;;;;2373417;54;20985;-67
2022/01/16 05:51:33;;;;;;;23.92;9.82;;;0.50;68.60;;;;;;2351565;53;20988;-67
2022/01/16 05:54:00;;;;;;;23.60;9.70;;;0.50;68.70;;;;;;2368429;54;20958;-66
2022/01/16 05:56:26;;;;;;;19.00;8.60;;;0.50;68.80;;;;;;2563948;52;20910;-67
2022/01/16 05:58:52;;;;;;;22.10;9.07;;;0.50;68.80;;;;;;2366592;53;21033;-67
2022/01/16 06:01:19;;;;;;;23.48;9.75;;;0.40;68.80;;;;;;2353869;53;21442;-67
2022/01/16 06:03:45;;;;;;;27.58;11.15;;;0.40;68.90;;;;;;2356183;53;21406;-67
2022/01/16 06:06:12;;;;;;;30.70;12.82;;;0.40;68.90;;;;;;2449129;52;21005;-67
2022/01/16 06:08:38;;;;;;;27.30;11.88;;;0.40;68.80;;;;;;2425550;52;20946;-67
2022/01/16 06:11:05;;;;;;;24.90;11.50;;;0.40;68.80;;;;;;2370426;53;20946;-67
2022/01/16 06:13:31;;;;;;;23.48;10.45;;;0.40;68.90;;;;;;2384690;52;20910;-67
2022/01/16 06:15:58;;;;;;;25.98;10.80;;;0.30;68.80;;;;;;2365729;53;20993;-67
2022/01/16 06:18:24;;;;;;;27.83;11.25;;;0.30;68.90;;;;;;2354927;53;20962;-67
2022/01/16 06:20:50;;;;;;;25.42;11.45;;;0.30;69.10;;;;;;2370203;54;22161;-67
2022/01/16 06:23:16;;;;;;;23.98;10.63;;;0.30;69.20;;;;;;2370391;53;21009;-67
2022/01/16 06:25:44;;;;;;;22.02;9.10;;;0.30;69.30;;;;;;2370554;53;21561;-67
2022/01/16 06:28:12;;;;;;;23.05;9.70;;;0.30;69.20;;;;;;2350375;53;21596;-67
2022/01/16 06:30:39;;;;;;;24.05;9.48;;;0.30;69.10;;;;;;2370264;54;20918;-67
2022/01/16 06:33:06;;;;;;;19.65;8.60;;;0.30;69.10;;;;;;2370235;53;20921;-67
2022/01/16 06:35:33;;;;;;;21.00;8.20;;;0.30;69.00;;;;;;2350252;53;20977;-67
2022/01/16 06:37:59;;;;;;;27.27;10.38;;;0.30;69.30;;;;;;2369933;53;21463;-67
2022/01/16 06:40:26;;;;;;;20.27;9.05;;;0.30;69.10;;;;;;2370318;54;21001;-67
2022/01/16 06:42:53;;;;;;;21.92;9.80;;;0.20;69.10;;;;;;2369910;53;20956;-66
2022/01/16 06:45:19;;;;;;;21.48;9.98;;;0.20;69.10;;;;;;2361417;53;20956;-67
2022/01/16 06:47:48;;;;;;;22.73;9.63;;;0.20;69.10;;;;;;2351028;53;20960;-67
2022/01/16 06:50:14;;;;;;;20.20;9.02;;;0.20;69.10;;;;;;2359929;53;21041;-67
2022/01/16 06:52:41;;;;;;;20.90;8.75;;;0.20;69.10;;;;;;2368437;54;21355;-67
2022/01/16 06:55:08;;;;;;;21.80;8.82;;;0.20;69.00;;;;;;2351506;53;20964;-66
2022/01/16 06:57:34;;;;;;;21.70;9.05;;;0.20;69.10;;;;;;2366960;53;20985;-67
2022/01/16 07:00:02;;;;;;;25.48;10.43;;;0.20;69.20;;;;;;2369331;53;20978;-67
2022/01/16 07:02:29;;;;;;;21.30;8.52;;;0.10;69.20;;;;;;2369425;53;21461;-66
2022/01/16 07:04:55;;;;;;;22.45;9.30;;;0.10;69.20;;;;;;2369323;54;20958;-67
2022/01/16 07:07:21;;;;;;;19.70;8.68;;;0.10;69.20;;;;;;2369447;54;20934;-67
2022/01/16 07:09:48;;;;;;;20.75;8.60;;;0.10;69.20;;;;;;2469619;52;21927;-68
2022/01/16 07:12:15;;;;;;;18.08;8.00;;;0.10;69.20;;;;;;2362588;53;21441;-67
2022/01/16 07:14:41;;;;;;;23.75;9.50;;;0.10;69.20;;;;;;2356818;53;21445;-67
2022/01/16 07:17:07;;;;;;;22.80;9.68;;;0.10;69.20;;;;;;2369842;54;20970;-67
2022/01/16 07:19:33;;;;;;;18.85;9.38;;;0.10;69.20;;;;;;2408823;52;21486;-67
2022/01/16 07:22:04;;;;;;;20.10;9.02;;;0.10;69.30;;;;;;2366406;53;20969;-67
2022/01/16 07:24:30;;;;;;;21.02;9.40;;;0.10;69.40;;;;;;2376897;53;20931;-67
2022/01/16 07:27:00;;;;;;;20.80;8.57;;;0.10;69.40;;;;;;2370534;54;20945;-67
2022/01/16 07:29:30;;;;;;;25.27;10.57;;;0.10;69.40;;;;;;2369662;54;20922;-67
2022/01/16 07:31:56;;;;;;;22.25;8.73;;;0.10;69.40;;;;;;2369767;54;20930;-67
2022/01/16 07:34:23;;;;;;;22.33;8.80;;;0.10;70.10;;;;;;2433639;52;21010;-67
2022/01/16 07:36:50;;;;;;;26.27;11.25;;;0.10;69.30;;;;;;2349924;54;21295;-67
2022/01/16 07:39:16;;;;;;;30.85;13.13;;;0.10;69.30;;;;;;2369912;54;21514;-67
2022/01/16 07:41:42;;;;;;;26.20;12.13;;;0.10;69.30;;;;;;2369238;54;21037;-67
2022/01/16 07:44:09;;;;;;;29.90;12.82;;;0.10;69.40;;;;;;2388202;52;20953;-67
2022/01/16 07:46:35;;;;;;;35.67;13.93;;;0.10;69.40;;;;;;2515016;52;21803;-67
2022/01/16 07:49:01;;;;;;;33.22;15.48;;;0.10;69.40;;;;;;2352307;53;20958;-67
2022/01/16 07:51:27;;;;;;;34.40;16.33;;;0.10;69.40;;;;;;2369633;53;21357;-67
2022/01/16 07:53:55;;;;;;;34.78;15.20;;;0.10;69.50;;;;;;2369940;53;21707;-67
2022/01/16 07:56:24;;;;;;;34.30;14.52;;;0.10;69.70;;;;;;2374352;52;21028;-67
2022/01/16 07:58:50;;;;;;;35.28;16.12;;;0.20;69.90;;;;;;2369919;54;21002;-67
2022/01/16 08:01:17;;;;;;;31.30;14.32;;;0.20;70.10;;;;;;2349212;53;20942;-67
2022/01/16 08:03:43;;;;;;;31.45;14.80;;;0.20;70.10;;;;;;2369505;53;20922;-67
2022/01/16 08:06:13;;;;;;;30.33;13.60;;;0.20;70.20;;;;;;2369874;53;21398;-67
2022/01/16 08:08:40;;;;;;;26.67;12.32;;;0.30;70.50;;;;;;2581626;52;20961;-67
2022/01/16 08:11:09;;;;;;;28.38;13.45;;;0.30;70.60;;;;;;2587135;53;21007;-67
2022/01/16 08:13:36;;;;;;;30.70;13.75;;;0.30;70.70;;;;;;2366897;53;20970;-67
2022/01/16 08:16:06;;;;;;;30.23;13.73;;;0.40;70.80;;;;;;2421194;52;21001;-67
2022/01/16 08:18:32;;;;;;;27.20;12.85;;;0.40;70.90;;;;;;2371870;54;20962;-67
2022/01/16 08:20:58;;;;;;;30.50;13.80;;;0.40;71.00;;;;;;2358890;53;21031;-67
2022/01/16 08:23:25;;;;;;;29.23;13.82;;;0.50;71.30;;;;;;2426403;53;20938;-67
2022/01/16 08:25:51;;;;;;;30.42;14.02;;;0.50;71.50;;;;;;2366701;53;20980;-67
2022/01/16 08:28:18;;;;;;;33.17;12.65;;;0.60;71.80;;;;;;2357435;53;20972;-67
2022/01/16 08:30:44;;;;;;;33.50;15.40;;;0.70;72.00;;;;;;2403680;52;20993;-67
2022/01/16 08:33:10;;;;;;;36.63;15.57;;;0.70;72.20;;;;;;2463560;52;21006;-67
2022/01/16 08:35:37;;;;;;;42.65;18.58;;;0.80;72.30;;;;;;2371669;54;20973;-67
2022/01/16 08:38:03;;;;;;;44.30;20.60;;;0.80;72.50;;;;;;2377715;52;20997;-67
2022/01/16 08:40:31;;;;;;;45.00;21.12;;;0.90;72.80;;;;;;2371867;54;20993;-67
2022/01/16 08:42:58;;;;;;;46.83;20.58;;;1.00;73.00;;;;;;2372033;54;20929;-67
2022/01/16 08:45:24;;;;;;;40.12;19.10;;;1.10;73.30;;;;;;2439791;52;20962;-67
2022/01/16 08:47:51;;;;;;;49.47;21.37;;;1.20;73.50;;;;;;2367094;53;21070;-67
2022/01/16 08:50:18;;;;;;;46.58;20.02;;;1.30;73.70;;;;;;2385042;53;20922;-67
2022/01/16 08:52:45;;;;;;;40.92;18.60;;;1.40;73.90;;;;;;2349738;53;20950;-67
2022/01/16 08:55:12;;;;;;;36.72;18.30;;;1.50;74.00;;;;;;2371820;52;21474;-67
2022/01/16 08:57:38;;;;;;;36.25;16.23;;;1.60;74.00;;;;;;2593292;52;20985;-67
2022/01/16 09:00:05;;;;;;;33.70;16.37;;;1.70;74.00;;;;;;2474889;52;20974;-67
2022/01/16 09:02:32;;;;;;;32.05;15.05;;;1.80;74.00;;;;;;2371877;53;20958;-67
2022/01/16 09:04:58;;;;;;;32.58;15.70;;;1.90;74.00;;;;;;2371368;54;20974;-67
2022/01/16 09:07:24;;;;;;;32.40;14.85;;;2.00;74.10;;;;;;2371360;54;20954;-67
2022/01/16 09:09:51;;;;;;;32.90;15.45;;;2.00;74.10;;;;;;2371909;53;20973;-68
2022/01/16 09:12:17;;;;;;;33.70;14.70;;;2.10;74.20;;;;;;2358610;52;20925;-67
2022/01/16 09:14:43;;;;;;;34.22;15.50;;;2.20;74.20;;;;;;2371051;53;20969;-67
2022/01/16 09:17:09;;;;;;;31.60;15.32;;;2.30;74.20;;;;;;2371828;54;20926;-67
2022/01/16 09:19:36;;;;;;;31.17;15.00;;;2.40;74.30;;;;;;2371047;54;20934;-66
2022/01/16 09:22:02;;;;;;;31.73;14.82;;;2.50;74.50;;;;;;2371568;53;20999;-66
2022/01/16 09:24:29;;;;;;;37.88;16.02;;;2.60;74.50;;;;;;2346069;53;21003;-66
2022/01/16 09:26:56;;;;;;;32.15;15.30;;;2.60;74.50;;;;;;2365870;53;20981;-67
2022/01/16 09:29:22;;;;;;;31.50;15.52;;;2.70;74.50;;;;;;2453050;52;20996;-67
2022/01/16 09:31:48;;;;;;;34.35;16.20;;;2.80;74.40;;;;;;2371089;54;20906;-66
2022/01/16 09:34:18;;;;;;;38.15;17.12;;;2.90;74.50;;;;;;2371802;53;20941;-68
2022/01/16 09:36:44;;;;;;;36.80;17.37;;;3.00;74.60;;;;;;2371806;52;21000;-68
2022/01/16 09:39:10;;;;;;;30.23;15.43;;;3.00;74.70;;;;;;2321933;53;21018;-67
2022/01/16 09:41:37;;;;;;;28.87;14.52;;;3.10;74.80;;;;;;2442776;53;21385;-67
2022/01/16 09:44:03;;;;;;;36.55;17.48;;;3.20;75.00;;;;;;2318502;54;21019;-67
2022/01/16 09:46:29;;;;;;;35.75;17.60;;;3.30;75.00;;;;;;2342093;54;21420;-67
2022/01/16 09:48:56;;;;;;;41.17;18.52;;;3.40;75.10;;;;;;2384943;53;21755;-66
2022/01/16 09:51:25;;;;;;;39.90;19.65;;;3.50;75.20;;;;;;2312011;53;20995;-67
2022/01/16 09:53:54;;;;;;;40.97;19.52;;;3.60;75.90;;;;;;2311363;53;20967;-67
2022/01/16 09:56:20;;;;;;;37.85;19.27;;;3.70;75.30;;;;;;2325173;53;20992;-67
2022/01/16 09:58:47;;;;;;;38.25;19.65;;;3.80;75.40;;;;;;2310528;53;21047;-67
2022/01/16 10:01:13;;;;;;;35.85;17.55;;;3.90;75.80;;;;;;2333677;53;21528;-67
2022/01/16 10:03:41;;;;;;;31.23;16.83;;;4.00;76.10;;;;;;2344874;53;20929;-66
2022/01/16 10:06:10;;;;;;;31.90;17.92;;;4.10;76.50;;;;;;2342669;53;20915;-66
2022/01/16 10:08:37;;;;;;;32.53;17.62;;;4.30;76.90;;;;;;2337571;53;21020;-66
2022/01/16 10:11:22;;;;;;;32.47;17.05;;;4.40;76.80;;;;;;2334023;54;21000;-67
2022/01/16 10:13:57;;;;;;;33.42;16.75;;;4.60;76.60;;;;;;2434216;53;20936;-66
2022/01/16 10:16:25;;;;;;;30.60;16.85;;;4.70;77.10;;;;;;2427163;52;21443;-67
2022/01/16 10:18:51;;;;;;;35.55;17.37;;;4.90;77.60;;;;;;2353026;53;20920;-66
2022/01/16 10:21:34;;;;;;;31.80;17.10;;;5.10;78.80;;;;;;2342238;54;20966;-67
2022/01/16 10:24:18;;;;;;;29.48;16.05;;;5.30;79.30;;;;;;2332310;53;21059;-66
2022/01/16 10:26:44;;;;;;;29.37;15.95;;;5.50;79.80;;;;;;2357718;53;21007;-68
2022/01/16 10:29:18;;;;;;;23.70;13.80;;;5.80;79.50;;;;;;2369838;53;20941;-66
2022/01/16 10:31:45;;;;;;;24.95;13.82;;;5.90;78.50;;;;;;2369761;54;20966;-66
2022/01/16 10:34:28;;;;;;;26.77;15.10;;;6.10;77.70;;;;;;2370025;53;20938;-67
2022/01/16 10:36:55;;;;;;;24.55;13.93;;;6.20;76.40;;;;;;2369268;54;20942;-66
2022/01/16 10:39:24;;;;;;;25.08;14.35;;;6.30;75.90;;;;;;2370401;53;21522;-66
2022/01/16 10:42:13;;;;;;;26.02;15.38;;;6.30;75.30;;;;;;2372469;53;20985;-67
2022/01/16 10:44:39;;;;;;;28.48;14.93;;;6.40;74.30;;;;;;2351108;53;20967;-67
2022/01/16 10:47:24;;;;;;;23.58;14.25;;;6.30;73.90;;;;;;2373224;52;21041;-66
2022/01/16 10:49:58;;;;;;;26.27;14.00;;;6.30;73.30;;;;;;2507518;52;20953;-67
2022/01/16 10:52:24;;;;;;;24.80;13.25;;;6.30;73.50;;;;;;2623061;52;20981;-67
2022/01/16 10:54:50;;;;;;;23.67;13.32;;;6.30;73.80;;;;;;2370101;53;20942;-67
2022/01/16 10:57:21;;;;;;;21.37;12.07;;;6.30;74.00;;;;;;2370040;54;21002;-67
2022/01/16 10:59:49;;;;;;;25.55;14.40;;;6.40;74.20;;;;;;2362809;53;21452;-66
2022/01/16 11:02:19;;;;;;;24.75;15.05;;;6.40;74.30;;;;;;2350881;53;21009;-67
2022/01/16 11:04:45;;;;;;;28.58;15.43;;;6.40;74.70;;;;;;2369654;53;21750;-67
2022/01/16 11:07:11;;;;;;;29.12;15.90;;;6.50;75.40;;;;;;2370234;53;21470;-66
2022/01/16 11:09:38;;;;;;;31.33;17.55;;;6.60;75.70;;;;;;2370299;53;20985;-66
2022/01/16 11:12:05;;;;;;;32.47;17.27;;;6.70;75.70;;;;;;2370275;53;20926;-67
2022/01/16 11:14:31;;;;;;;30.80;17.17;;;6.80;75.80;;;;;;2349006;53;20961;-66
2022/01/16 11:16:58;;;;;;;32.50;17.58;;;6.80;75.90;;;;;;2408312;52;20973;-66
2022/01/16 11:19:26;;;;;;;31.95;17.95;;;6.90;76.10;;;;;;2347253;53;20930;-66
2022/01/16 11:21:55;;;;;;;26.73;16.23;;;7.10;76.60;;;;;;2370406;54;21017;-66
2022/01/16 11:24:35;;;;;;;26.65;16.05;;;7.20;76.90;;;;;;2371436;54;21817;-67
2022/01/16 11:27:01;;;;;;;28.30;16.08;;;7.30;77.10;;;;;;2501012;52;20954;-66
2022/01/16 11:29:28;;;;;;;30.60;16.55;;;7.50;77.50;;;;;;2366415;54;21017;-67
2022/01/16 11:31:55;;;;;;;29.98;16.27;;;7.60;78.00;;;;;;2370107;54;21375;-67
2022/01/16 11:34:22;;;;;;;30.23;16.95;;;7.80;78.50;;;;;;2362536;53;21121;-66
2022/01/16 11:36:48;;;;;;;27.17;15.80;;;8.00;79.10;;;;;;2357885;53;20942;-67
2022/01/16 11:39:14;;;;;;;29.70;17.23;;;8.20;78.10;;;;;;2369345;54;20963;-67
2022/01/16 11:41:52;;;;;;;28.65;16.52;;;8.30;77.30;;;;;;2354598;53;21085;-66
2022/01/16 11:44:30;;;;;;;27.05;16.40;;;8.40;75.90;;;;;;2370408;54;21016;-67
2022/01/16 11:47:01;;;;;;;27.25;15.23;;;8.50;75.10;;;;;;2370247;54;21356;-66
2022/01/16 11:49:35;;;;;;;24.48;14.35;;;8.50;74.90;;;;;;2369750;53;21005;-67
2022/01/16 11:53:03;;;;;;;23.67;14.63;;;8.60;74.70;;;;;;2369947;53;20951;-66
2022/01/16 11:55:35;;;;;;;23.42;13.40;;;8.60;73.40;;;;;;2370589;53;20935;-68
2022/01/16 11:58:02;;;;;;;23.30;13.40;;;8.70;74.40;;;;;;2370536;54;20989;-67
2022/01/16 12:00:44;;;;;;;23.02;15.10;;;8.70;74.70;;;;;;2370226;53;20953;-67
2022/01/16 12:03:33;;;;;;;25.45;15.70;;;8.80;74.60;;;;;;2387390;52;21097;-66
2022/01/16 12:06:32;;;;;;;24.33;15.07;;;8.90;75.00;;;;;;2370479;54;20942;-66
2022/01/16 12:09:00;;;;;;;25.77;15.32;;;9.00;75.40;;;;;;2374866;52;20962;-66
2022/01/16 12:11:36;;;;;;;20.98;14.70;;;9.10;76.70;;;;;;2370297;54;21708;-67
2022/01/16 12:14:02;;;;;;;24.37;15.35;;;9.30;76.70;;;;;;2370152;54;21058;-67
2022/01/16 12:16:43;;;;;;;26.15;16.67;;;9.50;77.80;;;;;;2370101;54;21073;-67
2022/01/16 12:19:36;;;;;;;28.02;17.08;;;9.70;77.30;;;;;;2370061;54;21475;-67
2022/01/16 12:22:04;;;;;;;26.50;17.35;;;9.90;76.10;;;;;;2370815;53;20946;-67
2022/01/16 12:24:38;;;;;;;30.95;18.08;;;10.00;75.40;;;;;;2370470;54;21017;-67
2022/01/16 12:27:28;;;;;;;26.95;17.02;;;10.20;74.70;;;;;;2456317;52;20993;-70
2022/01/16 12:31:44;;;;;;;26.17;15.98;;;10.30;73.70;;;;;;2369808;54;20958;-67
2022/01/16 12:34:42;;;;;;;25.35;14.05;;;10.40;73.00;;;;;;2369823;54;20950;-71
2022/01/16 12:37:40;;;;;;;26.65;16.45;;;10.60;72.20;;;;;;2370510;54;20926;-67
2022/01/16 12:40:08;;;;;;;28.50;17.27;;;10.60;71.40;;;;;;2370285;54;20946;-68
2022/01/16 12:42:34;;;;;;;27.37;16.85;;;10.70;72.50;;;;;;2371120;52;21541;-70
2022/01/16 12:45:00;;;;;;;28.85;16.42;;;10.70;72.40;;;;;;2370333;54;20968;-71
2022/01/16 12:47:26;;;;;;;25.05;15.68;;;10.70;72.40;;;;;;2369855;54;21009;-69
2022/01/16 12:49:57;;;;;;;21.90;13.80;;;10.80;71.60;;;;;;2370577;53;21454;-71
2022/01/16 12:52:23;;;;;;;24.27;15.38;;;10.80;70.50;;;;;;2447789;53;20954;-68
2022/01/16 12:54:51;;;;;;;23.25;13.45;;;10.80;69.60;;;;;;2370143;54;20941;-69
2022/01/16 12:57:28;;;;;;;21.77;13.55;;;10.70;68.70;;;;;;2369568;54;20970;-67
2022/01/16 12:59:54;;;;;;;20.33;12.00;;;10.60;67.60;;;;;;2371127;54;20982;-69
2022/01/16 13:02:21;;;;;;;22.73;13.73;;;10.50;67.70;;;;;;2369587;53;20914;-68
2022/01/16 13:04:47;;;;;;;21.08;12.65;;;10.30;67.40;;;;;;2368368;53;21399;-69
2022/01/16 13:07:29;;;;;;;21.85;12.88;;;10.20;67.60;;;;;;2369942;54;22084;-70
2022/01/16 13:09:56;;;;;;;20.50;12.48;;;10.10;67.80;;;;;;2315993;54;21396;-71
2022/01/16 13:12:23;;;;;;;18.65;11.35;;;10.00;67.70;;;;;;2359269;53;21068;-68
2022/01/16 13:14:49;;;;;;;18.90;11.05;;;9.80;68.60;;;;;;2363090;53;21013;-66
2022/01/16 13:17:15;;;;;;;19.80;11.65;;;9.70;68.60;;;;;;2341849;54;21066;-69
2022/01/16 13:19:57;;;;;;;22.77;14.50;;;9.60;68.40;;;;;;2347967;53;20905;-67
2022/01/16 13:22:27;;;;;;;24.50;14.40;;;9.50;67.90;;;;;;2348108;53;20981;-68
2022/01/16 13:25:11;;;;;;;25.42;13.80;;;9.40;67.70;;;;;;2336278;53;20974;-68
2022/01/16 13:27:40;;;;;;;21.58;12.93;;;9.20;67.30;;;;;;2368788;53;21017;-66
2022/01/16 13:30:23;;;;;;;22.48;14.15;;;9.10;68.10;;;;;;2364808;54;20903;-68
2022/01/16 13:32:49;;;;;;;;;;;9.00;68.00;;;;;;2368760;54;20998;-67